createdAt,value
2023-05-10T00:00:35.088Z,67.80
2023-05-10T00:03:02.130Z,67.80
2023-05-10T00:05:29.271Z,67.70
2023-05-10T00:07:56.176Z,67.70
2023-05-10T00:10:23.226Z,67.80
2023-05-10T00:12:51.214Z,67.40
2023-05-10T00:15:18.210Z,67.90
2023-05-10T00:17:45.202Z,68.10
2023-05-10T00:20:12.599Z,67.90
2023-05-10T00:22:39.585Z,67.90
2023-05-10T00:25:07.228Z,67.80
2023-05-10T00:27:34.298Z,67.70
2023-05-10T00:30:01.234Z,67.90
2023-05-10T00:32:29.513Z,68.00
2023-05-10T00:34:56.501Z,67.70
2023-05-10T00:37:23.507Z,67.60
2023-05-10T00:39:50.523Z,67.70
2023-05-10T00:42:17.717Z,67.80
2023-05-10T00:44:44.774Z,67.80
2023-05-10T00:47:12.675Z,67.70
2023-05-10T00:49:39.822Z,67.70
2023-05-10T00:52:07.073Z,67.80
2023-05-10T00:54:34.111Z,67.70
2023-05-10T00:57:01.220Z,67.60
2023-05-10T00:59:29.522Z,67.70
2023-05-10T01:01:56.634Z,67.70
2023-05-10T01:04:26.675Z,67.40
2023-05-10T01:06:54.739Z,67.60
2023-05-10T01:09:23.289Z,67.80
2023-05-10T01:11:50.898Z,67.50
2023-05-10T01:14:20.817Z,67.80
2023-05-10T01:16:49.404Z,67.80
2023-05-10T01:19:28.043Z,67.70
2023-05-10T01:22:42.594Z,67.40
2023-05-10T01:25:31.422Z,67.50
2023-05-10T01:28:13.440Z,68.10
2023-05-10T01:30:58.300Z,68.00
2023-05-10T01:33:40.626Z,68.10
2023-05-10T01:36:18.380Z,67.90
2023-05-10T01:38:52.753Z,67.60
2023-05-10T01:41:50.633Z,67.30
2023-05-10T01:44:38.864Z,67.90
2023-05-10T01:47:21.211Z,68.10
2023-05-10T01:49:53.019Z,68.00
2023-05-10T01:52:23.496Z,68.80
2023-05-10T01:54:56.514Z,68.00
2023-05-10T01:57:27.264Z,67.30
2023-05-10T01:59:55.198Z,67.90
2023-05-10T02:02:25.324Z,67.70
2023-05-10T02:04:54.426Z,67.60
2023-05-10T02:07:22.873Z,67.60
2023-05-10T02:09:50.768Z,67.80
2023-05-10T02:12:19.081Z,67.60
2023-05-10T02:14:47.868Z,67.50
2023-05-10T02:17:16.034Z,67.90
2023-05-10T02:19:44.278Z,67.90
2023-05-10T02:22:11.514Z,67.70
2023-05-10T02:24:39.539Z,67.70
2023-05-10T02:27:07.992Z,67.40
2023-05-10T02:29:36.947Z,67.40
2023-05-10T02:32:04.565Z,67.30
2023-05-10T02:34:32.302Z,68.20
2023-05-10T02:37:00.800Z,67.80
2023-05-10T02:39:29.763Z,67.40
2023-05-10T02:41:58.568Z,67.50
2023-05-10T02:44:28.979Z,67.60
2023-05-10T02:46:57.042Z,67.80
2023-05-10T02:49:24.148Z,68.00
2023-05-10T02:51:59.244Z,67.90
2023-05-10T02:54:31.028Z,67.50
2023-05-10T02:57:02.734Z,67.80
2023-05-10T02:59:29.800Z,67.80
2023-05-10T03:01:56.887Z,67.70
2023-05-10T03:04:24.000Z,67.40
2023-05-10T03:06:54.241Z,67.80
2023-05-10T03:09:22.156Z,68.00
2023-05-10T03:12:11.436Z,67.60
2023-05-10T03:14:50.826Z,67.50
2023-05-10T03:17:47.148Z,67.40
2023-05-10T03:20:22.912Z,67.60
2023-05-10T03:22:56.225Z,68.00
2023-05-10T03:25:25.153Z,67.70
2023-05-10T03:27:53.888Z,67.50
2023-05-10T03:30:21.556Z,67.80
2023-05-10T03:32:48.613Z,67.80
2023-05-10T03:35:17.906Z,68.00
2023-05-10T03:37:45.281Z,67.60
2023-05-10T03:40:12.781Z,66.90
2023-05-10T03:42:42.441Z,67.60
2023-05-10T03:45:10.718Z,67.70
2023-05-10T03:47:37.753Z,67.40
2023-05-10T03:50:05.393Z,67.80
2023-05-10T03:52:33.438Z,67.60
2023-05-10T03:55:00.396Z,67.50
2023-05-10T03:57:27.507Z,67.70
2023-05-10T03:59:54.505Z,67.70
2023-05-10T04:02:21.513Z,67.60
2023-05-10T04:04:49.251Z,67.70
2023-05-10T04:07:16.383Z,67.60
2023-05-10T04:09:43.435Z,67.50
2023-05-10T04:12:11.138Z,67.40
2023-05-10T04:14:38.354Z,67.60
2023-05-10T04:17:05.517Z,67.80
2023-05-10T04:19:32.963Z,67.90
2023-05-10T04:22:00.175Z,67.70
2023-05-10T04:24:27.086Z,67.60
2023-05-10T04:26:57.661Z,67.70
2023-05-10T04:29:24.823Z,67.60
2023-05-10T04:31:52.004Z,67.50
2023-05-10T04:34:19.763Z,67.60
2023-05-10T04:36:46.706Z,67.50
2023-05-10T04:39:14.756Z,67.50
2023-05-10T04:41:41.722Z,66.60
2023-05-10T04:44:08.963Z,67.50
2023-05-10T04:46:35.997Z,67.50
2023-05-10T04:49:03.010Z,67.30
2023-05-10T04:51:30.015Z,67.70
2023-05-10T04:54:05.141Z,67.30
2023-05-10T04:56:34.288Z,67.20
2023-05-10T04:59:01.258Z,67.60
2023-05-10T05:01:28.350Z,67.40
2023-05-10T05:03:55.692Z,67.60
2023-05-10T05:06:22.706Z,67.60
2023-05-10T05:08:50.693Z,67.30
2023-05-10T05:11:18.415Z,67.50
2023-05-10T05:13:45.393Z,67.20
2023-05-10T05:16:12.587Z,67.20
2023-05-10T05:18:39.817Z,67.50
2023-05-10T05:21:20.042Z,67.40
2023-05-10T05:23:47.414Z,67.40
2023-05-10T05:26:14.384Z,68.00
2023-05-10T05:28:41.408Z,67.70
2023-05-10T05:31:09.030Z,67.50
2023-05-10T05:33:36.654Z,67.00
2023-05-10T05:36:07.244Z,67.40
2023-05-10T05:38:34.243Z,67.60
2023-05-10T05:41:01.281Z,67.70
2023-05-10T05:43:28.404Z,67.50
2023-05-10T05:45:55.897Z,67.60
2023-05-10T05:48:22.980Z,67.70
2023-05-10T05:50:50.058Z,67.80
2023-05-10T05:53:17.016Z,67.50
2023-05-10T05:55:57.397Z,67.90
2023-05-10T05:58:25.183Z,67.20
2023-05-10T06:00:55.543Z,66.90
2023-05-10T06:03:22.731Z,67.30
2023-05-10T06:05:49.973Z,67.50
2023-05-10T06:08:17.094Z,67.40
2023-05-10T06:10:44.100Z,68.30
2023-05-10T06:13:11.199Z,67.60
2023-05-10T06:15:38.598Z,67.30
2023-05-10T06:18:05.801Z,67.40
2023-05-10T06:20:32.926Z,67.40
2023-05-10T06:23:00.207Z,67.40
2023-05-10T06:25:27.389Z,67.00
2023-05-10T06:27:58.371Z,67.60
2023-05-10T06:30:29.688Z,67.70
2023-05-10T06:32:57.476Z,67.30
2023-05-10T06:35:25.212Z,67.10
2023-05-10T06:37:52.658Z,67.00
2023-05-10T06:40:20.396Z,67.60
2023-05-10T06:42:48.628Z,67.20
2023-05-10T06:45:16.808Z,67.10
2023-05-10T06:47:44.538Z,67.00
2023-05-10T06:50:14.955Z,67.10
2023-05-10T06:52:41.902Z,67.60
2023-05-10T06:55:09.803Z,67.30
2023-05-10T06:57:37.140Z,67.60
2023-05-10T07:00:07.465Z,66.90
2023-05-10T07:02:34.723Z,67.00
2023-05-10T07:05:03.392Z,66.70
2023-05-10T07:07:30.841Z,67.50
2023-05-10T07:09:58.667Z,67.40
2023-05-10T07:12:26.092Z,67.30
2023-05-10T07:14:53.335Z,67.00
2023-05-10T07:17:20.638Z,67.80
2023-05-10T07:19:47.748Z,67.20
2023-05-10T07:22:14.770Z,66.40
2023-05-10T07:24:41.790Z,67.50
2023-05-10T07:27:08.961Z,67.30
2023-05-10T07:29:36.666Z,67.20
2023-05-10T07:32:03.862Z,67.60
2023-05-10T07:34:31.605Z,67.60
2023-05-10T07:37:04.450Z,67.60
2023-05-10T07:39:31.415Z,66.80
2023-05-10T07:41:58.410Z,67.50
2023-05-10T07:44:25.763Z,67.50
2023-05-10T07:46:53.131Z,67.90
2023-05-10T07:49:20.112Z,67.60
2023-05-10T07:51:47.042Z,66.60
2023-05-10T07:54:15.217Z,67.50
2023-05-10T07:56:46.524Z,67.40
2023-05-10T07:59:18.019Z,67.60
2023-05-10T08:01:45.727Z,67.30
2023-05-10T08:04:12.918Z,67.30
2023-05-10T08:06:41.367Z,67.60
2023-05-10T08:09:09.307Z,67.40
2023-05-10T08:11:36.524Z,67.50
2023-05-10T08:14:03.588Z,67.70
2023-05-10T08:16:30.697Z,67.30
2023-05-10T08:18:57.862Z,67.20
2023-05-10T08:21:25.022Z,67.30
2023-05-10T08:23:52.009Z,67.00
2023-05-10T08:26:19.450Z,67.20
2023-05-10T08:28:46.421Z,67.00
2023-05-10T08:31:13.532Z,67.00
2023-05-10T08:33:42.192Z,67.00
2023-05-10T08:36:10.273Z,67.30
2023-05-10T08:38:38.576Z,68.00
2023-05-10T08:41:07.125Z,67.10
2023-05-10T08:43:36.859Z,67.30
2023-05-10T08:46:05.563Z,67.40
2023-05-10T08:48:35.501Z,67.30
2023-05-10T08:51:04.667Z,67.00
2023-05-10T08:53:33.776Z,67.20
2023-05-10T08:56:02.224Z,67.00
2023-05-10T08:58:29.353Z,66.90
2023-05-10T09:00:56.995Z,67.10
2023-05-10T09:03:23.990Z,66.80
2023-05-10T09:05:51.036Z,66.80
2023-05-10T09:08:18.691Z,67.00
2023-05-10T09:10:48.438Z,67.20
2023-05-10T09:13:16.691Z,66.90
2023-05-10T09:15:45.940Z,67.30
2023-05-10T09:18:13.688Z,67.00
2023-05-10T09:20:41.342Z,67.20
2023-05-10T09:23:09.296Z,67.00
2023-05-10T09:25:36.671Z,66.90
2023-05-10T09:28:07.165Z,66.90
2023-05-10T09:30:34.475Z,67.20
2023-05-10T09:33:02.491Z,67.10
2023-05-10T09:35:32.476Z,67.30
2023-05-10T09:38:02.219Z,67.00
2023-05-10T09:40:30.386Z,67.50
2023-05-10T09:43:23.650Z,66.90
2023-05-10T09:45:54.409Z,67.50
2023-05-10T09:48:25.804Z,67.80
2023-05-10T09:50:59.369Z,67.40
2023-05-10T09:53:26.423Z,67.00
2023-05-10T09:55:53.346Z,67.50
2023-05-10T09:58:20.343Z,67.30
2023-05-10T10:00:48.879Z,67.40
2023-05-10T10:03:20.571Z,67.50
2023-05-10T10:05:49.109Z,67.40
2023-05-10T10:08:17.619Z,67.60
2023-05-10T10:10:47.593Z,67.30
2023-05-10T10:13:15.093Z,67.40
2023-05-10T10:15:43.939Z,67.40
2023-05-10T10:18:15.713Z,67.60
2023-05-10T10:20:43.220Z,67.50
2023-05-10T10:23:10.747Z,67.40
2023-05-10T10:25:38.985Z,67.90
2023-05-10T10:28:23.050Z,67.70
2023-05-10T10:30:52.262Z,67.90
2023-05-10T10:33:52.281Z,68.00
2023-05-10T10:36:21.384Z,67.90
2023-05-10T10:38:48.308Z,67.80
2023-05-10T10:41:33.102Z,67.70
2023-05-10T10:44:27.857Z,67.80
2023-05-10T10:47:10.325Z,67.80
2023-05-10T10:49:45.060Z,68.00
2023-05-10T10:52:34.315Z,68.00
2023-05-10T10:55:11.810Z,68.00
2023-05-10T10:57:41.990Z,67.80
2023-05-10T11:00:37.222Z,68.10
2023-05-10T11:03:14.638Z,67.60
2023-05-10T11:06:01.020Z,68.20
2023-05-10T11:08:30.694Z,68.20
2023-05-10T11:11:01.366Z,68.30
2023-05-10T11:13:48.401Z,68.40
2023-05-10T11:16:17.526Z,68.00
2023-05-10T11:19:05.127Z,68.00
2023-05-10T11:21:33.676Z,67.90
2023-05-10T11:24:06.877Z,68.20
2023-05-10T11:26:36.823Z,68.30
2023-05-10T11:29:05.943Z,68.20
2023-05-10T11:31:33.247Z,68.10
2023-05-10T11:34:04.768Z,68.10
2023-05-10T11:36:36.871Z,68.00
2023-05-10T11:39:05.331Z,68.00
2023-05-10T11:41:32.826Z,67.60
2023-05-10T11:44:00.508Z,67.60
2023-05-10T11:46:29.309Z,67.90
2023-05-10T11:49:03.055Z,67.70
2023-05-10T11:51:30.256Z,67.90
2023-05-10T11:53:58.294Z,67.50
2023-05-10T11:56:27.199Z,67.20
2023-05-10T11:58:59.609Z,67.70
2023-05-10T12:01:28.132Z,67.80
2023-05-10T12:04:00.008Z,67.40
2023-05-10T12:06:32.774Z,67.60
2023-05-10T12:09:00.630Z,67.70
2023-05-10T12:11:29.720Z,67.90
2023-05-10T12:13:57.725Z,67.60
2023-05-10T12:16:29.521Z,67.30
2023-05-10T12:19:00.929Z,67.10
2023-05-10T12:21:30.098Z,67.20
2023-05-10T12:24:01.306Z,67.30
2023-05-10T12:26:30.058Z,67.10
2023-05-10T12:31:59.915Z,66.90
2023-05-10T12:34:34.791Z,66.90
2023-05-10T12:37:02.643Z,67.10
2023-05-10T12:39:47.726Z,66.80
2023-05-10T12:42:14.748Z,66.60
2023-05-10T12:44:41.746Z,66.90
2023-05-10T12:47:08.742Z,66.60
2023-05-10T12:49:36.068Z,66.10
2023-05-10T12:52:03.240Z,66.60
2023-05-10T12:54:30.611Z,66.70
2023-05-10T12:56:57.603Z,66.60
2023-05-10T12:59:24.682Z,66.40
2023-05-10T13:01:51.564Z,66.30
2023-05-10T13:04:18.547Z,66.40
2023-05-10T13:06:45.811Z,66.10
2023-05-10T13:09:12.717Z,66.00
2023-05-10T13:11:39.695Z,66.00
2023-05-10T13:14:06.595Z,65.60
2023-05-10T13:16:33.772Z,65.70
2023-05-10T13:19:00.930Z,65.80
2023-05-10T13:21:27.797Z,65.90
2023-05-10T13:23:54.782Z,65.50
2023-05-10T13:26:22.259Z,65.30
2023-05-10T13:28:49.888Z,65.30
2023-05-10T13:31:16.988Z,65.30
2023-05-10T13:33:43.918Z,64.90
2023-05-10T13:36:10.853Z,65.00
2023-05-10T13:38:38.351Z,65.00
2023-05-10T13:41:05.765Z,64.80
2023-05-10T13:43:32.771Z,64.50
2023-05-10T13:45:59.763Z,64.20
2023-05-10T13:48:26.743Z,64.50
2023-05-10T13:50:53.756Z,64.40
2023-05-10T13:53:20.635Z,64.60
2023-05-10T13:55:48.441Z,64.30
2023-05-10T13:58:15.363Z,63.60
2023-05-10T14:00:42.452Z,64.00
2023-05-10T14:03:11.925Z,64.30
2023-05-10T14:05:39.592Z,64.00
2023-05-10T14:08:06.594Z,63.80
2023-05-10T14:10:33.518Z,64.20
2023-05-10T14:13:00.530Z,64.20
2023-05-10T14:15:27.641Z,63.80
2023-05-10T14:17:54.663Z,63.50
2023-05-10T14:20:21.757Z,63.00
2023-05-10T14:22:48.636Z,63.40
2023-05-10T14:25:16.417Z,63.30
2023-05-10T14:27:43.540Z,62.80
2023-05-10T14:30:11.102Z,62.90
2023-05-10T14:32:38.172Z,63.00
2023-05-10T14:35:06.953Z,64.00
2023-05-10T14:37:34.279Z,63.40
2023-05-10T14:40:01.407Z,63.00
2023-05-10T14:42:29.446Z,62.60
2023-05-10T14:44:56.659Z,62.50
2023-05-10T14:47:23.684Z,62.90
2023-05-10T14:49:50.637Z,62.80
2023-05-10T14:52:18.256Z,62.80
2023-05-10T14:54:45.214Z,63.00
2023-05-10T14:57:12.218Z,62.90
2023-05-10T14:59:39.119Z,63.20
2023-05-10T15:02:09.205Z,63.20
2023-05-10T15:04:36.811Z,63.80
2023-05-10T15:07:04.443Z,64.00
2023-05-10T15:09:31.455Z,64.10
2023-05-10T15:11:58.368Z,63.40
2023-05-10T15:14:25.688Z,63.20
2023-05-10T15:16:52.690Z,63.40
2023-05-10T15:19:20.661Z,63.70
2023-05-10T15:21:48.246Z,63.00
2023-05-10T15:24:15.572Z,63.00
2023-05-10T15:26:42.720Z,62.80
2023-05-10T15:29:09.642Z,62.00
2023-05-10T15:31:36.789Z,61.20
2023-05-10T15:34:03.818Z,61.90
2023-05-10T15:36:30.736Z,60.80
2023-05-10T15:38:57.616Z,60.90
2023-05-10T15:41:25.576Z,60.80
2023-05-10T15:43:52.549Z,60.20
2023-05-10T15:46:19.565Z,59.90
2023-05-10T15:48:46.535Z,59.70
2023-05-10T15:51:13.804Z,59.20
2023-05-10T15:53:49.374Z,61.60
2023-05-10T15:56:23.764Z,62.40
2023-05-10T15:58:51.347Z,63.10
2023-05-10T16:01:18.531Z,63.50
2023-05-10T16:03:45.712Z,61.10
2023-05-10T16:06:12.697Z,62.70
2023-05-10T16:08:39.766Z,59.80
2023-05-10T16:11:08.011Z,59.70
2023-05-10T16:13:35.085Z,59.60
2023-05-10T16:16:02.141Z,59.00
2023-05-10T16:18:29.202Z,58.70
2023-05-10T16:20:56.340Z,58.40
2023-05-10T16:23:23.264Z,58.70
2023-05-10T16:25:50.185Z,58.20
2023-05-10T16:28:17.241Z,58.00
2023-05-10T16:30:44.304Z,58.50
2023-05-10T16:33:11.260Z,58.40
2023-05-10T16:35:38.676Z,58.50
2023-05-10T16:38:05.784Z,58.70
2023-05-10T16:40:33.000Z,58.60
2023-05-10T16:42:59.908Z,58.40
2023-05-10T16:45:27.003Z,58.60
2023-05-10T16:47:53.995Z,58.30
2023-05-10T16:50:21.294Z,58.50
2023-05-10T16:52:48.326Z,59.70
2023-05-10T16:55:15.621Z,59.20
2023-05-10T16:57:42.691Z,59.20
2023-05-10T17:00:11.946Z,58.80
2023-05-10T17:02:39.484Z,59.10
2023-05-10T17:05:06.905Z,59.50
2023-05-10T17:07:33.977Z,59.70
2023-05-10T17:10:00.911Z,59.70
2023-05-10T17:12:28.112Z,58.90
2023-05-10T17:14:55.161Z,59.50
2023-05-10T17:17:23.790Z,59.40
2023-05-10T17:19:51.296Z,59.50
2023-05-10T17:22:18.503Z,59.60
2023-05-10T17:24:46.584Z,59.60
2023-05-10T17:27:14.219Z,59.40
2023-05-10T17:29:41.274Z,59.50
2023-05-10T17:32:09.371Z,59.90
2023-05-10T17:34:37.483Z,60.00
2023-05-10T17:37:05.084Z,60.00
2023-05-10T17:39:32.055Z,60.00
2023-05-10T17:41:59.101Z,59.90
2023-05-10T17:44:26.065Z,60.10
2023-05-10T17:46:53.055Z,60.30
2023-05-10T17:49:20.021Z,60.10
2023-05-10T17:51:48.185Z,60.20
2023-05-10T17:54:15.269Z,60.10
2023-05-10T17:56:42.433Z,60.10
2023-05-10T17:59:09.340Z,60.10
2023-05-10T18:01:36.396Z,60.40
2023-05-10T18:04:04.638Z,60.50
2023-05-10T18:06:36.661Z,60.50
2023-05-10T18:09:04.922Z,60.60
2023-05-10T18:11:31.811Z,60.70
2023-05-10T18:13:58.736Z,60.60
2023-05-10T18:16:25.629Z,60.70
2023-05-10T18:18:52.928Z,60.80
2023-05-10T18:21:19.870Z,60.80
2023-05-10T18:23:47.033Z,60.90
2023-05-10T18:26:14.116Z,61.00
2023-05-10T18:28:42.341Z,61.00
2023-05-10T18:31:09.401Z,61.10
2023-05-10T18:33:36.409Z,61.30
2023-05-10T18:36:04.225Z,61.40
2023-05-10T18:38:31.410Z,61.60
2023-05-10T18:40:58.472Z,61.70
2023-05-10T18:43:25.517Z,61.70
2023-05-10T18:45:52.679Z,61.90
2023-05-10T18:48:19.883Z,62.20
2023-05-10T18:50:46.773Z,62.20
2023-05-10T18:53:14.089Z,62.40
2023-05-10T18:55:41.101Z,62.50
2023-05-10T18:58:08.143Z,62.60
2023-05-10T19:00:35.118Z,62.80
2023-05-10T19:03:02.251Z,62.90
2023-05-10T19:05:31.557Z,63.00
2023-05-10T19:07:58.590Z,63.00
2023-05-10T19:10:25.532Z,63.10
2023-05-10T19:12:52.581Z,63.30
2023-05-10T19:15:21.520Z,63.40
2023-05-10T19:17:50.527Z,63.50
2023-05-10T19:20:18.068Z,63.60
2023-05-10T19:23:02.076Z,63.60
2023-05-10T19:25:34.445Z,63.60
2023-05-10T19:28:01.723Z,63.60
2023-05-10T19:30:30.324Z,63.70
2023-05-10T19:32:58.058Z,63.70
2023-05-10T19:35:25.422Z,63.80
2023-05-10T19:37:53.143Z,63.90
2023-05-10T19:40:20.322Z,63.90
2023-05-10T19:42:47.393Z,63.90
2023-05-10T19:45:15.767Z,63.80
2023-05-10T19:47:43.414Z,63.80
2023-05-10T19:50:12.449Z,63.90
2023-05-10T19:52:39.651Z,64.10
2023-05-10T19:55:07.254Z,64.20
2023-05-10T19:57:34.294Z,64.30
2023-05-10T20:00:01.453Z,64.40
2023-05-10T20:02:28.760Z,64.50
2023-05-10T20:04:55.938Z,64.50
2023-05-10T20:07:22.857Z,64.70
2023-05-10T20:09:49.853Z,64.70
2023-05-10T20:12:16.930Z,64.60
2023-05-10T20:14:43.979Z,64.70
2023-05-10T20:17:11.013Z,64.60
2023-05-10T20:19:38.008Z,64.60
2023-05-10T20:22:05.480Z,64.70
2023-05-10T20:24:32.525Z,64.70
2023-05-10T20:27:00.704Z,64.80
2023-05-10T20:29:27.654Z,64.80
2023-05-10T20:31:54.642Z,64.80
2023-05-10T20:34:21.806Z,65.10
2023-05-10T20:36:48.968Z,65.40
2023-05-10T20:39:15.979Z,65.60
2023-05-10T20:41:43.779Z,65.80
2023-05-10T20:44:10.830Z,65.90
2023-05-10T20:46:38.011Z,66.00
2023-05-10T20:49:05.648Z,66.00
2023-05-10T20:51:33.303Z,66.00
2023-05-10T20:54:02.539Z,65.90
2023-05-10T20:56:29.507Z,66.10
2023-05-10T20:58:56.780Z,66.20
2023-05-10T21:01:23.826Z,66.10
2023-05-10T21:03:50.827Z,66.30
2023-05-10T21:06:18.148Z,66.20
2023-05-10T21:08:45.105Z,66.20
2023-05-10T21:11:12.074Z,66.40
2023-05-10T21:13:39.053Z,66.20
2023-05-10T21:16:06.140Z,66.40
2023-05-10T21:18:33.339Z,66.40
2023-05-10T21:21:00.402Z,66.50
2023-05-10T21:23:27.322Z,66.60
2023-05-10T21:25:54.442Z,66.50
2023-05-10T21:28:21.644Z,66.50
2023-05-10T21:30:48.586Z,66.40
2023-05-10T21:33:15.531Z,66.40
2023-05-10T21:35:43.143Z,66.40
2023-05-10T21:38:10.686Z,66.40
2023-05-10T21:40:38.922Z,66.50
2023-05-10T21:43:06.325Z,66.70
2023-05-10T21:45:33.895Z,66.60
2023-05-10T21:48:00.902Z,66.60
2023-05-10T21:50:28.570Z,66.60
2023-05-10T21:52:56.641Z,66.70
2023-05-10T21:55:23.820Z,66.60
2023-05-10T21:57:50.948Z,66.70
2023-05-10T22:00:19.692Z,66.70
2023-05-10T22:02:47.146Z,66.60
2023-05-10T22:05:14.288Z,66.60
2023-05-10T22:07:41.272Z,66.60
2023-05-10T22:10:09.360Z,66.60
2023-05-10T22:12:36.320Z,66.70
2023-05-10T22:17:33.694Z,66.70
2023-05-10T22:20:00.687Z,66.60
2023-05-10T22:22:27.727Z,66.70
2023-05-10T22:24:54.622Z,66.70
2023-05-10T22:27:21.693Z,66.70
2023-05-10T22:29:48.752Z,66.70
2023-05-10T22:32:15.681Z,66.60
2023-05-10T22:34:43.283Z,66.70
2023-05-10T22:37:13.699Z,66.70
2023-05-10T22:39:40.636Z,66.90
2023-05-10T22:42:08.147Z,66.80
2023-05-10T22:44:35.118Z,66.80
2023-05-10T22:47:02.066Z,66.80
2023-05-10T22:49:29.056Z,67.00
2023-05-10T22:51:56.038Z,66.70
2023-05-10T22:54:23.000Z,66.70
2023-05-10T22:56:50.484Z,67.00
2023-05-10T22:59:17.439Z,67.00
2023-05-10T23:01:44.415Z,66.80
2023-05-10T23:04:11.473Z,66.80
2023-05-10T23:06:39.547Z,66.70
2023-05-10T23:09:06.568Z,66.80
2023-05-10T23:11:33.477Z,66.40
2023-05-10T23:14:00.470Z,66.60
2023-05-10T23:16:27.482Z,66.80
2023-05-10T23:18:54.898Z,66.90
2023-05-10T23:21:21.972Z,67.10
2023-05-10T23:23:49.404Z,67.00
2023-05-10T23:26:16.366Z,67.00
2023-05-10T23:28:43.295Z,67.00
2023-05-10T23:31:10.623Z,66.90
2023-05-10T23:33:37.672Z,67.00
2023-05-10T23:36:04.802Z,67.60
2023-05-10T23:38:31.741Z,66.60
2023-05-10T23:40:58.753Z,66.60
2023-05-10T23:43:25.716Z,66.60
2023-05-10T23:45:54.217Z,66.50
2023-05-10T23:48:21.456Z,66.20
2023-05-10T23:50:48.694Z,66.40
2023-05-10T23:53:15.787Z,66.40
2023-05-10T23:55:43.204Z,66.30
2023-05-10T23:58:10.130Z,66.10
